Time;durP1;ratioP1;P1;durP2;ratioP2;P2;SDS_P1;SDS_P2;PMS_P1;PMS_P2;Temp;Humidity;BMP_temperature;BMP_pressure;BME280_temperature;BME280_humidity;BME280_pressure;Samples;Min_cycle;Max_cycle;Signal;HPM_P1;HPM_P2
2022/04/27 00:01:09;;;;;;;2.85;1.40;;;;;;;18.80;46.03;96847.38;5034504;28;20454;-31
2022/04/27 00:03:35;;;;;;;1.58;1.40;;;;;;;18.77;45.94;96856.59;5035578;28;20030;-31
2022/04/27 00:06:00;;;;;;;2.47;1.48;;;;;;;18.75;46.07;96855.53;5035673;28;20049;-31
2022/04/27 00:08:25;;;;;;;2.17;1.52;;;;;;;18.73;45.78;96855.22;5035818;28;20091;-31
2022/04/27 00:10:51;;;;;;;2.08;1.50;;;;;;;18.67;46.05;96855.09;5035781;28;20021;-30
2022/04/27 00:13:16;;;;;;;4.35;1.33;;;;;;;18.74;45.79;96851.25;5034216;28;20116;-30
2022/04/27 00:15:42;;;;;;;2.70;1.17;;;;;;;18.69;45.49;96857.41;5034744;28;20117;-30
2022/04/27 00:18:07;;;;;;;2.85;1.50;;;;;;;18.68;45.46;96840.16;5035521;28;20394;-30
2022/04/27 00:20:33;;;;;;;3.67;1.75;;;;;;;18.71;45.47;96858.44;5035649;28;20063;-31
2022/04/27 00:22:58;;;;;;;2.10;1.40;;;;;;;18.71;45.33;96844.72;5035217;28;20071;-32
2022/04/27 00:25:24;;;;;;;1.52;1.20;;;;;;;18.72;45.19;96840.72;5035242;28;20032;-30
2022/04/27 00:27:49;;;;;;;2.03;1.50;;;;;;;18.73;45.58;96849.75;5035188;28;20482;-31
2022/04/27 00:30:15;;;;;;;2.50;1.40;;;;;;;18.65;45.44;96839.13;5035493;28;20017;-30
2022/04/27 00:32:40;;;;;;;4.35;1.50;;;;;;;18.68;45.42;96842.91;5035029;28;20041;-30
2022/04/27 00:35:08;;;;;;;3.05;1.50;;;;;;;18.63;45.12;96838.06;5035143;28;20030;-30
2022/04/27 00:37:34;;;;;;;1.80;1.30;;;;;;;18.64;45.41;96840.34;5035254;28;20124;-30
2022/04/27 00:39:59;;;;;;;3.35;1.40;;;;;;;18.63;45.11;96838.06;5035205;28;20406;-31
2022/04/27 00:42:25;;;;;;;3.15;1.35;;;;;;;18.63;45.08;96838.06;5035146;28;20120;-31
2022/04/27 00:44:50;;;;;;;1.83;1.33;;;;;;;18.53;45.64;96831.84;5034804;28;20032;-31
2022/04/27 00:47:17;;;;;;;2.95;1.40;;;;;;;18.60;45.04;96839.00;5035117;28;20443;-30
2022/04/27 00:49:46;;;;;;;2.15;1.33;;;;;;;18.56;45.28;96836.41;5034518;28;20379;-32
2022/04/27 00:52:13;;;;;;;1.70;1.10;;;;;;;18.60;44.63;96837.00;5034960;28;20028;-30
2022/04/27 00:54:41;;;;;;;2.53;1.40;;;;;;;18.59;44.93;96832.75;5034732;28;20372;-31
2022/04/27 00:57:07;;;;;;;2.38;1.20;;;;;;;18.58;44.95;96833.97;5034733;28;20022;-32
2022/04/27 00:59:33;;;;;;;2.30;1.40;;;;;;;18.64;44.78;96840.34;5034609;28;20094;-30
2022/04/27 01:02:04;;;;;;;2.22;1.35;;;;;;;18.58;44.82;96833.97;5034495;28;20064;-30
2022/04/27 01:04:32;;;;;;;2.78;1.30;;;;;;;18.59;44.57;96830.00;5034175;28;20017;-31
2022/04/27 01:06:58;;;;;;;2.45;1.50;;;;;;;18.54;45.08;96824.38;5034588;28;20070;-31
2022/04/27 01:09:33;;;;;;;2.97;1.48;;;;;;;18.58;44.51;96819.47;5034277;28;20033;-30
2022/04/27 01:12:01;;;;;;;2.97;1.55;;;;;;;18.53;44.95;96829.13;5034293;28;20026;-30
2022/04/27 01:14:27;;;;;;;2.90;1.25;;;;;;;18.52;45.03;96824.84;5034312;28;20076;-31
2022/04/27 01:16:54;;;;;;;2.25;1.60;;;;;;;18.53;44.70;96822.88;5033531;28;20023;-33
2022/04/27 01:19:24;;;;;;;2.75;1.50;;;;;;;18.51;45.02;96825.31;5034393;28;20021;-31
2022/04/27 01:22:02;;;;;;;2.78;1.42;;;;;;;18.47;44.77;96824.72;5033982;28;20389;-31
2022/04/27 01:24:27;;;;;;;2.28;1.30;;;;;;;18.46;45.00;96821.22;5033854;28;20033;-32
2022/04/27 01:26:54;;;;;;;2.08;1.38;;;;;;;18.47;44.74;96821.97;5034042;28;20444;-33
2022/04/27 01:29:22;;;;;;;3.20;1.25;;;;;;;18.47;44.55;96821.97;5033428;28;20029;-34
2022/04/27 01:32:16;;;;;;;4.45;1.45;;;;;;;18.50;44.78;96823.78;5018186;28;20523;-31
2022/04/27 01:34:41;;;;;;;1.98;1.20;;;;;;;18.46;44.65;96825.94;5012383;28;20073;-31
2022/04/27 01:39:52;;;;;;;2.35;1.33;;;;;;;18.41;44.66;96821.88;5014400;28;20037;-30
2022/04/27 01:42:18;;;;;;;2.60;1.50;;;;;;;18.37;44.75;96823.28;5014466;28;20391;-32
2022/04/27 01:44:43;;;;;;;1.80;1.40;;;;;;;18.45;44.57;96818.94;5013991;28;20026;-31
2022/04/27 01:47:09;;;;;;;2.45;1.40;;;;;;;18.42;45.02;96820.63;5014039;28;20038;-32
2022/04/27 01:49:34;;;;;;;2.35;1.45;;;;;;;18.39;44.94;96815.34;5014103;28;20456;-30
2022/04/27 01:54:44;;;;;;;2.10;1.40;;;;;;;18.36;44.63;96822.50;5013902;28;20028;-30
2022/04/27 01:57:11;;;;;;;3.20;1.48;;;;;;;18.36;44.57;96817.03;5012663;28;20030;-30
2022/04/27 01:59:37;;;;;;;3.53;1.50;;;;;;;18.35;44.55;96815.50;5013879;28;20026;-31
2022/04/27 02:02:03;;;;;;;2.67;1.30;;;;;;;18.37;44.73;96815.03;5013845;28;20025;-31
2022/04/27 02:04:28;;;;;;;3.70;1.90;;;;;;;18.34;44.54;96815.97;5013646;28;20017;-30
2022/04/27 02:06:54;;;;;;;3.75;1.65;;;;;;;18.36;44.35;96819.00;5013728;28;20025;-31
2022/04/27 02:26:08;;;;;;;2.72;1.63;;;;;;;18.34;44.55;96807.72;5012284;28;20072;-31
2022/04/27 02:28:33;;;;;;;2.47;1.30;;;;;;;18.30;44.56;96808.66;5013238;28;20109;-31
2022/04/27 02:31:00;;;;;;;3.13;1.50;;;;;;;18.26;44.76;96813.59;5013393;28;20076;-31
2022/04/27 02:33:25;;;;;;;3.03;1.58;;;;;;;18.33;44.24;96809.72;5013509;28;20037;-30
2022/04/27 02:35:50;;;;;;;1.73;1.20;;;;;;;18.34;44.22;96805.75;5013681;28;20464;-30
2022/04/27 02:38:16;;;;;;;3.83;1.70;;;;;;;18.29;44.37;96811.91;5013629;28;20113;-31
2022/04/27 02:40:41;;;;;;;2.63;1.80;;;;;;;18.28;44.41;96813.13;5017101;28;20029;-31
2022/04/27 02:43:07;;;;;;;2.70;1.60;;;;;;;18.30;44.53;96813.38;5049342;28;20299;-31
2022/04/27 02:45:32;;;;;;;2.67;1.52;;;;;;;18.33;44.13;96806.97;5017543;28;20037;-32
2022/04/27 02:47:58;;;;;;;1.85;1.20;;;;;;;18.29;44.44;96811.91;5017303;28;20029;-30
2022/04/27 02:53:27;;;;;;;2.20;1.40;;;;;;;18.28;44.28;96813.13;5015295;28;20036;-31
2022/04/27 02:55:52;;;;;;;2.05;1.23;;;;;;;18.30;44.28;96818.88;5015163;28;20030;-32
2022/04/27 02:58:18;;;;;;;2.58;1.98;;;;;;;18.28;44.03;96808.38;5015184;28;20132;-30
2022/04/27 03:00:46;;;;;;;2.45;1.27;;;;;;;18.26;44.17;96810.84;5015100;28;20034;-31
2022/04/27 03:03:12;;;;;;;3.05;1.40;;;;;;;18.27;44.07;96808.84;5014833;28;20026;-31
2022/04/27 03:05:37;;;;;;;2.78;1.30;;;;;;;18.21;44.23;96816.19;5015097;28;20396;-31
2022/04/27 03:08:04;;;;;;;3.60;1.27;;;;;;;18.18;44.36;96806.16;5015205;28;20040;-31
2022/04/27 03:10:29;;;;;;;1.73;1.27;;;;;;;18.23;44.17;96803.53;5015002;28;20053;-31
2022/04/27 03:12:54;;;;;;;4.40;1.90;;;;;;;18.30;44.02;96811.41;5014862;28;20021;-32
2022/04/27 03:15:20;;;;;;;2.35;1.30;;;;;;;18.22;44.34;96814.97;5014781;28;20034;-31
2022/04/27 03:18:16;;;;;;;2.67;1.48;;;;;;;18.19;44.43;96813.16;5014783;28;20030;-31
2022/04/27 03:20:33;;;;;;;2.85;1.35;;;;;;;18.25;43.95;96814.03;5014659;28;20033;-30
2022/04/27 03:23:30;;;;;;;2.92;1.45;;;;;;;18.22;44.12;96814.97;5014254;28;20032;-31
2022/04/27 03:25:56;;;;;;;2.63;1.58;;;;;;;18.30;43.74;96813.38;5016831;28;20034;-30
2022/04/27 03:28:21;;;;;;;3.70;1.40;;;;;;;18.31;43.92;96821.16;5015468;28;20049;-31
2022/04/27 03:30:49;;;;;;;3.95;2.03;;;;;;;18.27;43.70;96811.59;5016602;28;20115;-30
2022/04/27 03:33:15;;;;;;;3.47;1.52;;;;;;;18.23;43.96;96811.00;5016502;28;20034;-32
2022/04/27 03:35:41;;;;;;;1.83;1.42;;;;;;;18.22;43.78;96814.97;5016656;28;20046;-30
2022/04/27 03:38:08;;;;;;;3.50;1.25;;;;;;;18.21;43.51;96814.22;5016374;28;20033;-32
2022/04/27 03:40:34;;;;;;;2.20;1.25;;;;;;;18.22;43.78;96818.47;5016464;28;20026;-30
2022/04/27 03:42:59;;;;;;;2.90;1.30;;;;;;;18.16;43.81;96820.38;5016640;28;20353;-31
2022/04/27 03:45:25;;;;;;;2.03;1.40;;;;;;;18.20;43.88;96818.19;5016351;28;20048;-31
2022/04/27 03:47:50;;;;;;;3.50;1.77;;;;;;;18.26;43.88;96819.06;5016212;28;20068;-31
2022/04/27 03:50:16;;;;;;;2.80;1.67;;;;;;;18.17;43.79;96813.66;5016239;28;20034;-30
2022/04/27 03:52:43;;;;;;;3.72;1.40;;;;;;;18.19;43.89;96815.91;5015756;28;20022;-31
2022/04/27 03:55:08;;;;;;;3.15;1.50;;;;;;;18.14;43.75;96817.31;5016220;28;20061;-30
2022/04/27 03:57:34;;;;;;;3.10;1.02;;;;;;;18.11;43.78;96814.75;5016346;28;20058;-30
2022/04/27 04:00:24;;;;;;;2.28;1.40;;;;;;;18.17;43.72;96821.13;5015037;28;20076;-30
2022/04/27 04:02:49;;;;;;;4.10;1.50;;;;;;;18.17;43.78;96827.38;5015738;28;20157;-30
2022/04/27 04:05:28;;;;;;;3.05;1.30;;;;;;;18.13;43.89;96810.31;5015501;28;20109;-31
2022/04/27 04:38:09;;;;;;;1.92;1.30;;;;;;;18.07;43.62;96820.41;4036829;28;22140;-31
2022/04/27 04:40:35;;;;;;;4.05;1.60;;;;;;;18.05;43.63;96820.09;5015205;28;20058;-31
2022/04/27 04:43:00;;;;;;;2.28;1.33;;;;;;;18.15;43.57;96823.56;5014426;28;20034;-30
2022/04/27 04:45:26;;;;;;;4.85;1.60;;;;;;;18.12;43.65;96816.25;5015301;28;20088;-30
2022/04/27 04:47:52;;;;;;;4.78;1.70;;;;;;;18.04;43.69;96810.38;5015061;28;20061;-30
2022/04/27 04:50:18;;;;;;;4.90;1.65;;;;;;;18.13;43.57;96820.53;5020111;28;20027;-30
2022/04/27 04:52:46;;;;;;;2.95;1.40;;;;;;;18.02;43.92;96818.31;5022751;28;20486;-30
2022/04/27 04:55:12;;;;;;;2.45;1.63;;;;;;;18.10;43.58;96822.22;5013175;28;20052;-30
2022/04/27 04:57:38;;;;;;;2.83;1.48;;;;;;;18.13;43.72;96826.03;5029935;28;20101;-30
2022/04/27 05:00:05;;;;;;;2.72;1.50;;;;;;;18.06;43.60;96827.09;5032858;28;20531;-30
2022/04/27 05:02:33;;;;;;;3.28;1.55;;;;;;;18.06;43.92;96826.34;5031618;28;20029;-30
2022/04/27 05:05:02;;;;;;;3.33;1.67;;;;;;;18.08;43.51;96834.88;5032379;28;20017;-30
2022/04/27 05:07:30;;;;;;;2.95;1.60;;;;;;;18.12;43.82;96833.50;5032654;28;20040;-30
2022/04/27 05:09:55;;;;;;;5.78;2.72;;;;;;;18.10;43.92;96833.19;5014580;28;20056;-30
2022/04/27 05:12:22;;;;;;;3.80;1.50;;;;;;;18.12;43.72;96838.97;5012743;28;20058;-30
2022/04/27 05:14:48;;;;;;;5.50;2.10;;;;;;;18.10;43.85;96833.19;5012449;28;20116;-30
2022/04/27 05:17:13;;;;;;;3.15;1.50;;;;;;;18.05;43.99;96836.56;5011263;28;20021;-30
2022/04/27 05:19:39;;;;;;;3.10;1.48;;;;;;;18.10;43.97;96843.41;5012574;28;20025;-32
2022/04/27 05:22:04;;;;;;;2.70;1.58;;;;;;;18.06;44.18;96843.56;5012767;28;20443;-30
2022/04/27 05:24:30;;;;;;;2.42;1.30;;;;;;;18.07;44.04;96847.09;5012509;28;20029;-31
2022/04/27 05:26:55;;;;;;;3.60;1.30;;;;;;;18.09;44.07;96848.13;5012315;28;20030;-30
2022/04/27 05:32:06;;;;;;;2.33;1.50;;;;;;;18.05;44.37;96847.53;5012411;28;20610;-31
2022/04/27 05:34:33;;;;;;;2.72;1.70;;;;;;;18.11;44.29;96855.91;5011035;28;20021;-34
2022/04/27 05:36:59;;;;;;;6.05;1.60;;;;;;;18.12;44.30;96858.19;5012287;28;20038;-30
2022/04/27 05:39:25;;;;;;;2.45;1.50;;;;;;;18.11;44.41;96862.16;5011919;28;20049;-30
2022/04/27 05:41:52;;;;;;;2.40;1.75;;;;;;;18.15;44.03;96865.50;5012208;28;20034;-30
2022/04/27 05:44:23;;;;;;;2.92;1.25;;;;;;;18.08;44.31;96863.09;5012285;28;20037;-30
2022/04/27 05:46:49;;;;;;;3.25;1.58;;;;;;;18.10;44.24;96876.34;5032041;28;20036;-30
2022/04/27 05:49:14;;;;;;;4.95;1.45;;;;;;;18.14;44.17;96876.94;5031940;28;20108;-30
2022/04/27 05:51:40;;;;;;;2.97;1.42;;;;;;;18.14;44.35;96877.72;5031508;28;20167;-31
2022/04/27 05:54:05;;;;;;;2.42;1.35;;;;;;;18.13;44.36;96870.69;5031908;28;20033;-30
2022/04/27 05:56:31;;;;;;;2.28;1.55;;;;;;;18.09;44.58;96874.81;5030420;28;20022;-30
2022/04/27 05:58:57;;;;;;;3.65;1.67;;;;;;;18.05;44.30;96875.00;5031726;28;20021;-30
2022/04/27 06:01:23;;;;;;;3.03;1.50;;;;;;;18.16;44.39;96872.53;5031498;28;20071;-30
2022/04/27 06:03:49;;;;;;;7.47;1.88;;;;;;;18.08;44.17;96876.81;5031342;28;20037;-30
2022/04/27 06:06:15;;;;;;;4.78;1.80;;;;;;;18.14;44.26;96866.72;5031420;28;20026;-30
2022/04/27 06:08:40;;;;;;;2.47;1.50;;;;;;;18.10;44.20;96871.63;5031405;28;20083;-30
2022/04/27 06:11:06;;;;;;;3.67;1.73;;;;;;;18.13;44.48;96872.69;5031020;28;20033;-31
2022/04/27 06:13:31;;;;;;;2.85;1.30;;;;;;;18.13;44.46;96865.22;5030043;28;20036;-31
2022/04/27 06:15:57;;;;;;;6.40;1.90;;;;;;;18.00;44.79;96867.41;5031173;28;20395;-31
2022/04/27 06:18:22;;;;;;;2.15;1.60;;;;;;;18.07;44.49;96860.81;5029305;28;20108;-31
2022/04/27 06:20:48;;;;;;;2.13;1.30;;;;;;;18.12;44.43;96868.41;5030490;28;20855;-30
2022/04/27 06:23:14;;;;;;;3.28;1.83;;;;;;;18.03;44.58;96869.22;5012904;28;20471;-30
2022/04/27 06:25:41;;;;;;;2.58;1.60;;;;;;;18.10;44.39;96876.34;5011930;28;20030;-30
2022/04/27 06:28:07;;;;;;;2.08;1.30;;;;;;;18.11;44.37;96867.66;5019232;28;20100;-31
2022/04/27 06:30:35;;;;;;;3.25;1.48;;;;;;;18.07;44.41;96872.53;5018512;28;20078;-31
2022/04/27 06:33:01;;;;;;;2.05;1.45;;;;;;;18.05;44.53;96869.50;5011268;28;20065;-30
2022/04/27 06:35:27;;;;;;;2.38;1.60;;;;;;;18.09;44.26;96881.06;5029817;28;20045;-31
2022/04/27 06:37:53;;;;;;;3.33;1.38;;;;;;;18.09;44.31;96878.34;5030888;28;20087;-30
2022/04/27 06:40:18;;;;;;;3.03;1.33;;;;;;;18.10;44.57;96877.13;5030966;28;20043;-31
2022/04/27 06:42:44;;;;;;;3.97;1.55;;;;;;;18.04;44.52;96887.22;5031298;28;20037;-30
2022/04/27 06:45:10;;;;;;;2.15;1.30;;;;;;;17.90;45.09;96885.91;5029844;28;20041;-30
2022/04/27 06:47:36;;;;;;;4.35;1.90;;;;;;;17.94;44.92;96885.72;5014232;28;20037;-31
2022/04/27 06:50:01;;;;;;;7.30;2.30;;;;;;;18.04;44.63;96886.47;5031204;28;20068;-30
2022/04/27 06:52:27;;;;;;;7.20;2.05;;;;;;;17.92;44.92;96883.47;5030828;28;20028;-30
2022/04/27 06:54:52;;;;;;;6.20;2.25;;;;;;;18.04;44.71;96883.72;5031086;28;20025;-30
2022/04/27 06:57:18;;;;;;;6.68;1.83;;;;;;;18.13;44.86;96887.16;5029083;28;20475;-31
2022/04/27 06:59:43;;;;;;;5.07;1.73;;;;;;;17.97;44.79;96895.78;5030371;28;20036;-30
2022/04/27 07:02:10;;;;;;;6.38;1.88;;;;;;;17.93;44.89;96897.91;5030369;28;20034;-31
2022/04/27 07:04:37;;;;;;;13.32;2.00;;;;;;;18.00;44.94;96894.84;5030463;28;20097;-32
2022/04/27 07:07:03;;;;;;;4.80;1.60;;;;;;;17.98;44.96;96891.81;5030913;28;20098;-31
2022/04/27 07:09:32;;;;;;;6.20;2.15;;;;;;;17.80;45.29;96891.88;5030919;28;20032;-30
2022/04/27 07:11:58;;;;;;;5.50;1.90;;;;;;;17.97;44.91;96890.28;5030917;28;20195;-30
2022/04/27 07:14:24;;;;;;;6.53;1.85;;;;;;;18.03;44.99;96887.69;5030844;28;20344;-31
2022/04/27 07:16:49;;;;;;;7.20;2.72;;;;;;;18.03;45.04;96893.16;5028634;28;20094;-30
2022/04/27 07:19:15;;;;;;;4.40;1.35;;;;;;;17.97;45.01;96893.03;5030935;28;20410;-30
2022/04/27 07:21:41;;;;;;;6.30;2.03;;;;;;;17.94;44.96;96886.47;5030485;28;20072;-30
2022/04/27 07:24:07;;;;;;;8.90;1.75;;;;;;;17.83;45.50;96885.47;5011012;28;20029;-30
2022/04/27 07:26:33;;;;;;;4.40;1.75;;;;;;;17.97;45.26;96887.53;5012411;28;20022;-30
2022/04/27 07:28:59;;;;;;;6.97;1.80;;;;;;;17.93;45.32;96890.44;5014449;28;20037;-30
2022/04/27 07:31:26;;;;;;;5.82;1.83;;;;;;;17.97;45.34;96890.28;5022149;28;20029;-30
2022/04/27 07:33:52;;;;;;;9.13;2.35;;;;;;;18.03;45.00;96891.19;5036642;28;20070;-30
2022/04/27 07:36:18;;;;;;;5.82;2.03;;;;;;;18.10;44.96;96893.59;5036088;28;20134;-31
2022/04/27 07:38:43;;;;;;;6.28;1.88;;;;;;;18.06;45.36;96901.22;5036428;28;20128;-30
2022/04/27 07:41:09;;;;;;;3.60;2.22;;;;;;;18.02;45.40;96894.38;5036225;28;20029;-32
2022/04/27 07:43:34;;;;;;;4.72;1.80;;;;;;;18.06;45.38;96901.22;5035916;28;20024;-30
2022/04/27 07:46:00;;;;;;;5.03;1.85;;;;;;;18.09;45.26;96903.03;5034803;28;20040;-29
2022/04/27 07:48:32;;;;;;;3.88;1.65;;;;;;;17.93;45.57;96900.66;5034442;28;20052;-30
2022/04/27 07:51:02;;;;;;;4.03;1.92;;;;;;;17.89;45.75;96902.81;5036119;28;20021;-30
2022/04/27 07:53:27;;;;;;;2.92;1.50;;;;;;;17.86;45.75;96903.75;5035942;28;20022;-30
2022/04/27 07:55:52;;;;;;;2.92;1.67;;;;;;;17.98;45.80;96910.25;5035850;28;20353;-30
2022/04/27 07:58:18;;;;;;;3.33;1.58;;;;;;;17.75;45.73;96911.72;5035580;28;20025;-30
2022/04/27 08:00:44;;;;;;;3.25;1.48;;;;;;;17.65;46.21;96910.97;5035838;28;20051;-30
2022/04/27 08:03:09;;;;;;;3.25;1.40;;;;;;;17.87;45.90;96918.97;5035752;28;20108;-30
2022/04/27 08:05:34;;;;;;;3.10;1.58;;;;;;;18.02;45.57;96917.09;5035911;28;20037;-30
2022/04/27 08:08:00;;;;;;;5.40;1.67;;;;;;;18.11;45.49;96919.81;5035844;28;20021;-30
2022/04/27 08:10:26;;;;;;;5.05;1.48;;;;;;;17.80;45.93;96920.06;5035046;28;20029;-30
2022/04/27 08:12:52;;;;;;;3.10;1.20;;;;;;;17.51;47.00;96925.31;5035384;28;20028;-30
2022/04/27 08:15:20;;;;;;;4.00;1.20;;;;;;;17.15;48.10;96923.38;5035150;28;20471;-30
2022/04/27 08:17:53;;;;;;;4.63;1.52;;;;;;;17.15;48.17;96937.81;5034250;28;20478;-30
2022/04/27 08:23:09;;;;;;;2.75;1.30;;;;;;;17.54;46.41;96938.84;5035857;28;20075;-29
2022/04/27 08:25:36;;;;;;;1.88;1.25;;;;;;;17.56;45.84;96932.88;5035457;28;20384;-30
2022/04/27 08:28:06;;;;;;;2.38;1.35;;;;;;;17.78;45.94;96933.50;5035536;28;20033;-29
2022/04/27 08:30:36;;;;;;;2.20;1.10;;;;;;;17.81;45.89;96940.78;5035232;28;20075;-29
2022/04/27 08:33:02;;;;;;;2.88;1.42;;;;;;;17.80;46.10;96935.78;5035505;28;20073;-29
2022/04/27 08:35:28;;;;;;;3.45;1.23;;;;;;;17.55;46.67;96940.38;5035193;28;20045;-29
2022/04/27 08:37:54;;;;;;;4.13;1.30;;;;;;;17.72;46.20;96931.81;5034860;28;20021;-29
2022/04/27 08:40:20;;;;;;;3.20;1.38;;;;;;;17.86;45.90;96939.41;5034902;28;20411;-29
2022/04/27 08:42:48;;;;;;;6.00;1.45;;;;;;;17.98;45.94;96937.69;5035090;28;20486;-29
2022/04/27 08:45:13;;;;;;;3.70;1.30;;;;;;;17.92;45.48;96937.56;5035030;28;20031;-29
2022/04/27 08:47:39;;;;;;;1.95;1.20;;;;;;;18.00;45.62;96943.50;5034899;28;20021;-30
2022/04/27 08:50:16;;;;;;;2.30;1.35;;;;;;;18.10;45.46;96940.25;5034729;28;20049;-29
2022/04/27 08:52:43;;;;;;;2.85;1.42;;;;;;;18.09;45.59;96940.69;5035236;28;20380;-28
2022/04/27 08:55:10;;;;;;;4.60;2.20;;;;;;;17.78;45.11;96943.72;5034749;28;20029;-29
2022/04/27 08:57:36;;;;;;;1.48;1.30;;;;;;;17.90;45.56;96940.03;5034848;28;20017;-30
2022/04/27 09:00:09;;;;;;;4.78;1.33;;;;;;;18.01;45.47;96945.78;5034727;28;20411;-31
2022/04/27 09:02:35;;;;;;;3.88;1.80;;;;;;;17.38;47.47;96947.41;5034618;28;20379;-29
2022/04/27 09:05:26;;;;;;;1.80;1.30;;;;;;;17.80;46.20;96942.00;5034372;28;20035;-30
2022/04/27 09:07:52;;;;;;;3.50;1.30;;;;;;;18.11;45.38;96944.50;5034521;28;20033;-29
2022/04/27 09:10:21;;;;;;;5.03;1.45;;;;;;;18.15;45.50;96945.13;5033952;28;20030;-29
2022/04/27 09:12:46;;;;;;;2.17;1.30;;;;;;;18.13;45.48;96942.06;5034549;28;20025;-30
2022/04/27 09:15:14;;;;;;;2.63;1.42;;;;;;;18.13;45.39;96933.84;5034544;28;20022;-29
2022/04/27 09:23:25;;;;;;;4.50;1.20;;;;;;;18.06;45.65;96936.91;5034379;28;20032;-29
2022/04/27 09:25:55;;;;;;;3.53;1.55;;;;;;;18.05;45.77;96940.84;5034418;28;20459;-29
2022/04/27 09:28:26;;;;;;;2.53;1.10;;;;;;;18.17;45.46;96945.41;5034204;28;20029;-29
2022/04/27 09:30:52;;;;;;;2.63;1.50;;;;;;;18.20;45.20;96946.44;5032553;28;20030;-29
2022/04/27 09:33:38;;;;;;;4.28;1.13;;;;;;;18.17;45.15;96942.66;5032036;28;20017;-29
2022/04/27 09:36:23;;;;;;;2.42;1.15;;;;;;;18.09;45.30;96938.72;5033577;28;20028;-29
2022/04/27 09:38:53;;;;;;;4.07;1.70;;;;;;;18.20;45.09;96933.47;5033948;28;20064;-29
2022/04/27 09:41:42;;;;;;;4.28;1.40;;;;;;;18.21;44.94;96937.00;5034169;28;20041;-29
2022/04/27 09:44:10;;;;;;;2.17;1.30;;;;;;;18.22;44.96;96933.78;5034070;28;20045;-29
2022/04/27 09:46:40;;;;;;;3.17;1.10;;;;;;;18.16;44.61;96935.66;5033920;28;20518;-31
2022/04/27 09:49:08;;;;;;;2.22;1.20;;;;;;;18.20;44.76;96936.22;5033225;28;20399;-29
2022/04/27 09:51:43;;;;;;;1.80;1.10;;;;;;;18.19;44.85;96939.44;5033286;28;20479;-29
2022/04/27 10:47:57;;;;;;;2.63;1.00;;;;;;;18.35;44.02;96924.56;4804722;28;20092;-30
2022/04/27 10:50:28;;;;;;;1.50;0.90;;;;;;;18.36;43.85;96926.09;5013412;28;20488;-29
2022/04/27 10:52:55;;;;;;;2.75;0.90;;;;;;;18.38;43.90;96929.13;5013169;28;20490;-30
2022/04/27 10:55:37;;;;;;;1.23;0.88;;;;;;;18.35;43.95;96930.81;5013411;28;20525;-29
2022/04/27 10:58:14;;;;;;;2.45;1.00;;;;;;;18.35;43.94;96930.06;5013521;28;20037;-30
2022/04/27 11:00:57;;;;;;;3.28;1.10;;;;;;;18.30;43.99;96931.44;5013448;28;20049;-30
2022/04/27 11:03:24;;;;;;;1.65;1.15;;;;;;;18.27;44.01;96930.41;5014918;28;20031;-30
2022/04/27 11:05:50;;;;;;;2.28;1.00;;;;;;;18.31;43.93;96939.22;5014853;28;20049;-31
2022/04/27 11:08:36;;;;;;;2.97;1.80;;;;;;;18.35;43.59;96935.56;5014951;28;20033;-31
2022/04/27 11:11:06;;;;;;;1.80;1.00;;;;;;;18.45;43.30;96934.28;5014749;28;20065;-30
2022/04/27 11:13:32;;;;;;;1.30;0.85;;;;;;;18.31;43.50;96935.72;5014506;28;20021;-31
2022/04/27 11:16:07;;;;;;;1.00;0.73;;;;;;;18.43;43.23;96936.72;5014681;28;20528;-29
2022/04/27 11:18:55;;;;;;;2.38;1.10;;;;;;;18.38;42.90;96940.88;5014648;28;20049;-29
2022/04/27 11:21:21;;;;;;;1.50;0.90;;;;;;;18.48;42.89;96934.13;5014477;28;20022;-29
2022/04/27 11:23:47;;;;;;;1.20;0.90;;;;;;;18.41;42.87;96934.47;5012398;28;20452;-30
2022/04/27 11:26:15;;;;;;;1.10;0.80;;;;;;;18.46;42.74;96930.31;5014669;28;20025;-29
2022/04/27 11:28:45;;;;;;;1.73;0.90;;;;;;;18.46;42.71;96938.53;5014407;28;20029;-29
2022/04/27 11:31:12;;;;;;;1.33;0.90;;;;;;;18.50;42.82;96942.66;5013391;28;20120;-30
2022/04/27 11:33:41;;;;;;;1.83;0.95;;;;;;;18.48;42.61;96936.84;5014219;28;20041;-30
2022/04/27 11:36:20;;;;;;;2.65;1.13;;;;;;;18.49;42.74;96930.16;5013733;28;20102;-30
2022/04/27 11:38:45;;;;;;;2.13;1.27;;;;;;;18.47;43.02;96931.81;5014545;28;20056;-30
2022/04/27 11:41:19;;;;;;;2.30;1.00;;;;;;;18.50;42.84;96933.66;5014587;28;20018;-29
2022/04/27 11:43:45;;;;;;;1.90;1.40;;;;;;;18.49;42.94;96929.38;5014523;28;20151;-29
2022/04/27 11:46:11;;;;;;;1.25;0.95;;;;;;;18.38;42.85;96929.13;5014417;28;20468;-30
2022/04/27 11:48:46;;;;;;;1.27;0.93;;;;;;;18.48;42.84;96933.34;5013971;28;20104;-31
2022/04/27 11:51:11;;;;;;;2.65;1.00;;;;;;;18.49;42.67;96929.38;5014330;28;20029;-30
2022/04/27 11:53:54;;;;;;;2.25;1.13;;;;;;;18.54;42.64;96934.25;5014217;28;20030;-30
2022/04/27 11:56:19;;;;;;;2.25;1.13;;;;;;;18.50;42.75;96931.66;5014353;28;20030;-30
2022/04/27 11:58:46;;;;;;;0.88;0.80;;;;;;;18.53;42.54;96932.72;5014385;28;20029;-30
2022/04/27 12:01:19;;;;;;;2.33;0.80;;;;;;;18.57;42.91;96941.53;5014081;28;20026;-30
2022/04/27 12:04:22;;;;;;;3.03;1.27;;;;;;;18.55;42.75;96927.50;5014092;28;20037;-30
2022/04/27 12:06:48;;;;;;;1.67;0.90;;;;;;;18.55;42.89;96938.50;5014093;28;20539;-30
2022/04/27 12:09:17;;;;;;;1.50;1.10;;;;;;;18.56;42.91;96932.53;5013947;28;20195;-30
2022/04/27 12:11:43;;;;;;;1.70;1.10;;;;;;;18.64;42.75;96927.50;5013134;28;20541;-29
2022/04/27 12:14:09;;;;;;;2.28;1.00;;;;;;;18.63;42.76;96929.47;5012757;28;20041;-29
2022/04/27 12:16:34;;;;;;;1.70;1.40;;;;;;;18.65;42.69;96926.28;5013830;28;20025;-29
2022/04/27 12:19:00;;;;;;;1.73;1.13;;;;;;;18.62;42.45;96932.69;5013797;28;20025;-29
2022/04/27 12:21:27;;;;;;;2.95;0.85;;;;;;;18.66;42.43;96927.78;5013716;28;20422;-30
2022/04/27 12:23:56;;;;;;;2.95;1.00;;;;;;;18.67;42.54;96926.53;5011578;28;20045;-29
2022/04/27 12:26:23;;;;;;;2.05;1.00;;;;;;;18.65;42.39;96923.53;5013642;28;20506;-30
2022/04/27 12:28:49;;;;;;;1.77;1.00;;;;;;;18.65;42.45;96923.53;5013671;28;20072;-29
2022/04/27 12:31:17;;;;;;;2.60;1.10;;;;;;;18.59;42.59;96923.41;5013395;28;20022;-30
2022/04/27 12:33:51;;;;;;;1.73;1.13;;;;;;;18.48;43.07;96914.88;5013478;28;20476;-30
2022/04/27 12:39:21;;;;;;;2.40;1.17;;;;;;;18.56;42.86;96907.81;5013339;28;20384;-30
2022/04/27 12:41:49;;;;;;;1.60;1.10;;;;;;;18.63;42.74;96912.25;5013327;28;20105;-29
2022/04/27 12:44:20;;;;;;;2.47;1.15;;;;;;;18.65;42.64;96910.56;5013221;28;20034;-31
2022/04/27 12:46:59;;;;;;;2.15;1.30;;;;;;;18.67;42.55;96901.09;5013066;28;20392;-29
2022/04/27 12:49:29;;;;;;;1.35;0.90;;;;;;;18.69;42.55;96902.09;5013154;28;20128;-30
2022/04/27 12:51:57;;;;;;;3.33;1.55;;;;;;;18.77;42.28;96895.06;5013157;28;20476;-29
2022/04/27 12:54:35;;;;;;;1.35;0.88;;;;;;;18.72;42.41;96892.94;5013125;28;20034;-29
2022/04/27 12:57:01;;;;;;;1.85;1.30;;;;;;;18.69;42.17;96891.13;5013204;28;20049;-30
2022/04/27 12:59:27;;;;;;;1.52;1.13;;;;;;;18.53;42.63;96894.28;5012731;28;20387;-31
2022/04/27 13:02:06;;;;;;;2.65;1.20;;;;;;;18.64;42.28;96891.78;5011595;28;20029;-30
2022/04/27 13:04:31;;;;;;;2.60;1.50;;;;;;;18.79;42.10;96891.84;5011434;28;20753;-32
2022/04/27 13:06:58;;;;;;;1.40;0.93;;;;;;;18.66;42.66;96897.56;5012834;28;20033;-30
2022/04/27 13:12:08;;;;;;;1.50;1.17;;;;;;;18.68;42.55;96881.34;5012720;28;20633;-32
2022/04/27 13:14:33;;;;;;;1.50;1.10;;;;;;;18.69;42.47;96887.63;5012916;28;20029;-31
2022/04/27 13:16:59;;;;;;;1.50;1.20;;;;;;;18.78;42.44;96874.59;5012826;28;20111;-29
2022/04/27 13:19:24;;;;;;;1.42;1.15;;;;;;;18.76;42.43;96877.03;5012793;28;20475;-30
2022/04/27 13:21:50;;;;;;;2.17;1.20;;;;;;;18.78;42.31;96868.34;5012647;28;20073;-29
2022/04/27 13:24:16;;;;;;;2.03;1.05;;;;;;;18.82;41.92;96875.16;5009805;28;20105;-30
2022/04/27 13:26:43;;;;;;;1.45;1.00;;;;;;;18.81;42.34;96870.88;5012487;28;20033;-30
2022/04/27 13:29:08;;;;;;;1.50;1.05;;;;;;;18.82;42.08;96872.41;5012647;28;20038;-30
2022/04/27 13:31:34;;;;;;;1.85;1.08;;;;;;;18.84;41.80;96872.69;5012467;28;20021;-29
2022/04/27 13:34:00;;;;;;;1.42;1.00;;;;;;;18.88;42.07;96856.78;5012466;28;20353;-30
2022/04/27 13:36:25;;;;;;;1.50;1.10;;;;;;;18.74;42.34;96868.50;5012076;28;20445;-29
2022/04/27 13:38:52;;;;;;;1.83;1.10;;;;;;;18.74;42.78;96857.50;5012477;28;20036;-30
2022/04/27 13:41:18;;;;;;;2.90;1.30;;;;;;;18.80;42.61;96858.38;5012334;28;20030;-30
2022/04/27 13:43:43;;;;;;;2.40;1.38;;;;;;;18.77;43.10;96862.06;5012183;28;20395;-31